createdAt,value
2023-03-25T00:00:34.673Z,11.67
2023-03-25T00:05:40.632Z,8.20
2023-03-25T00:10:42.364Z,10.73
2023-03-25T00:15:46.190Z,8.97
2023-03-25T00:20:50.991Z,11.03
2023-03-25T00:25:53.631Z,15.70
2023-03-25T00:30:55.394Z,9.50
2023-03-25T00:35:59.395Z,9.87
2023-03-25T00:41:11.104Z,11.93
2023-03-25T00:46:12.898Z,12.20
2023-03-25T00:51:19.397Z,10.03
2023-03-25T00:56:22.417Z,11.63
2023-03-25T01:01:29.520Z,13.67
2023-03-25T01:06:35.867Z,10.27
2023-03-25T01:11:38.459Z,13.47
2023-03-25T01:16:40.561Z,9.90
2023-03-25T01:21:42.538Z,12.90
2023-03-25T01:26:45.904Z,9.60
2023-03-25T01:31:48.270Z,12.30
2023-03-25T01:36:50.083Z,14.37
2023-03-25T01:41:52.146Z,13.37
2023-03-25T01:46:54.531Z,13.57
2023-03-25T01:52:21.312Z,11.73
2023-03-25T01:57:24.528Z,13.63
2023-03-25T02:02:34.895Z,12.60
2023-03-25T02:07:42.493Z,12.97
2023-03-25T02:12:45.866Z,11.53
2023-03-25T02:17:57.559Z,8.60
2023-03-25T02:23:34.390Z,9.70
2023-03-25T02:28:48.080Z,5.57
2023-03-25T02:34:15.835Z,6.90
2023-03-25T02:39:32.822Z,8.33
2023-03-25T02:44:59.529Z,5.80
2023-03-25T02:50:13.707Z,5.23
2023-03-25T02:55:18.528Z,5.80
2023-03-25T03:00:23.899Z,5.73
2023-03-25T03:05:59.839Z,6.37
2023-03-25T03:11:15.007Z,6.30
2023-03-25T03:16:30.923Z,7.17
2023-03-25T03:21:41.127Z,6.73
2023-03-25T03:26:50.673Z,9.73
2023-03-25T03:32:05.502Z,10.17
2023-03-25T03:37:10.986Z,8.07
2023-03-25T03:42:25.457Z,7.53
2023-03-25T03:47:32.844Z,9.13
2023-03-25T03:52:50.593Z,8.47
2023-03-25T03:57:58.004Z,9.63
2023-03-25T04:03:07.244Z,9.13
2023-03-25T04:08:34.069Z,7.80
2023-03-25T04:13:42.261Z,10.13
2023-03-25T04:18:47.966Z,5.77
2023-03-25T04:23:49.936Z,5.50
2023-03-25T04:28:51.719Z,7.60
2023-03-25T04:33:53.405Z,7.73
2023-03-25T04:38:55.907Z,11.33
2023-03-25T04:43:58.388Z,6.30
2023-03-25T04:49:00.554Z,6.27
2023-03-25T04:54:02.268Z,5.40
2023-03-25T04:59:04.357Z,6.17
2023-03-25T05:04:06.237Z,5.60
2023-03-25T05:09:11.764Z,4.90
2023-03-25T05:14:15.797Z,6.77
2023-03-25T05:19:18.980Z,6.67
2023-03-25T05:24:21.027Z,5.20
2023-03-25T05:29:22.767Z,5.93
2023-03-25T05:34:25.682Z,6.33
2023-03-25T05:39:27.496Z,4.70
2023-03-25T05:44:29.264Z,6.13
2023-03-25T05:49:31.034Z,7.50
2023-03-25T05:54:32.717Z,9.60
2023-03-25T05:59:38.732Z,5.77
2023-03-25T06:04:43.548Z,9.53
2023-03-25T06:09:46.683Z,16.20
2023-03-25T06:14:53.875Z,15.80
2023-03-25T06:19:55.553Z,12.30
2023-03-25T06:24:57.314Z,17.03
2023-03-25T06:29:59.024Z,17.33
2023-03-25T06:35:00.767Z,11.03
2023-03-25T06:40:05.316Z,11.77
2023-03-25T06:45:07.753Z,14.10
2023-03-25T06:50:09.876Z,12.80
2023-03-25T06:55:12.538Z,14.17
2023-03-25T07:00:14.701Z,10.63
2023-03-25T07:05:16.704Z,11.37
2023-03-25T07:10:18.666Z,22.77
2023-03-25T07:15:20.415Z,30.93
2023-03-25T07:20:22.122Z,8.23
2023-03-25T07:25:23.895Z,10.90
2023-03-25T07:30:25.688Z,12.67
2023-03-25T07:35:27.420Z,16.33
2023-03-25T07:40:29.198Z,16.50
2023-03-25T07:45:30.968Z,10.40
2023-03-25T07:50:46.044Z,10.13
2023-03-25T07:55:50.938Z,10.73
2023-03-25T08:00:52.931Z,14.30
2023-03-25T08:05:55.062Z,11.00
2023-03-25T08:10:57.460Z,8.50
2023-03-25T08:15:59.221Z,10.53
2023-03-25T08:21:00.983Z,14.40
2023-03-25T08:26:03.160Z,11.87
2023-03-25T08:31:08.863Z,9.10
2023-03-25T08:36:14.063Z,6.93
2023-03-25T08:41:16.447Z,6.67
2023-03-25T08:46:18.282Z,6.20
2023-03-25T08:51:20.189Z,6.40
2023-03-25T08:56:21.941Z,6.07
2023-03-25T09:01:24.386Z,7.33
2023-03-25T09:06:26.272Z,7.77
2023-03-25T09:11:36.342Z,4.77
2023-03-25T09:16:38.626Z,6.17
2023-03-25T09:21:40.337Z,5.40
2023-03-25T09:26:42.021Z,5.30
2023-03-25T09:31:43.797Z,4.30
2023-03-25T09:36:45.930Z,6.87
2023-03-25T09:42:09.325Z,6.37
2023-03-25T09:47:14.884Z,7.30
2023-03-25T09:52:24.159Z,7.50
2023-03-25T09:57:33.363Z,6.50
2023-03-25T10:02:48.694Z,4.07
2023-03-25T10:08:04.595Z,5.73
2023-03-25T10:13:06.372Z,5.07
2023-03-25T10:18:34.597Z,7.97
2023-03-25T10:24:03.973Z,4.93
2023-03-25T10:29:12.391Z,7.43
2023-03-25T10:34:18.096Z,8.27
2023-03-25T10:39:21.711Z,8.97
2023-03-25T10:44:26.121Z,14.57
2023-03-25T10:49:31.133Z,12.77
2023-03-25T10:54:36.890Z,15.07
2023-03-25T10:59:47.344Z,10.10
2023-03-25T11:04:53.567Z,7.73
2023-03-25T11:10:19.154Z,11.70
2023-03-25T11:15:22.615Z,16.00
2023-03-25T11:20:35.861Z,14.50
2023-03-25T11:25:42.098Z,9.37
2023-03-25T11:31:07.222Z,9.80
2023-03-25T11:36:28.830Z,8.60
2023-03-25T11:41:35.822Z,8.93
2023-03-25T11:46:43.304Z,7.43
2023-03-25T11:51:45.971Z,7.27
2023-03-25T11:56:50.731Z,7.23
2023-03-25T12:02:02.032Z,7.67
2023-03-25T12:07:09.385Z,8.10
2023-03-25T12:12:26.226Z,7.57
2023-03-25T12:17:37.884Z,6.43
2023-03-25T12:22:51.793Z,7.60
2023-03-25T12:28:11.580Z,9.87
2023-03-25T12:33:26.384Z,8.60
2023-03-25T12:38:37.100Z,7.00
2023-03-25T12:44:00.269Z,5.27
2023-03-25T12:49:30.748Z,9.20
2023-03-25T12:54:32.408Z,7.63
2023-03-25T13:00:01.101Z,9.70
2023-03-25T13:05:27.122Z,9.73
2023-03-25T13:10:36.457Z,8.57
2023-03-25T13:15:55.106Z,7.50
2023-03-25T13:21:14.481Z,9.83
2023-03-25T13:26:23.108Z,8.67
2023-03-25T13:31:32.489Z,8.53
2023-03-25T13:36:42.933Z,11.47
2023-03-25T13:41:52.124Z,7.37
2023-03-25T13:47:00.706Z,8.70
2023-03-25T13:52:03.108Z,8.50
2023-03-25T13:57:07.578Z,10.17
2023-03-25T14:02:22.645Z,6.53
2023-03-25T14:07:47.556Z,7.43
2023-03-25T14:13:18.777Z,8.10
2023-03-25T14:18:21.101Z,9.23
2023-03-25T14:23:25.432Z,8.83
2023-03-25T14:28:43.916Z,8.00
2023-03-25T14:34:00.931Z,7.67
2023-03-25T14:39:04.483Z,9.03
2023-03-25T14:44:19.802Z,10.10
2023-03-25T14:49:23.260Z,9.80
2023-03-25T14:54:32.269Z,8.47
2023-03-25T14:59:44.424Z,12.03
2023-03-25T15:04:52.274Z,7.73
2023-03-25T15:09:56.062Z,9.43
2023-03-25T15:15:10.693Z,9.63
2023-03-25T15:20:23.684Z,9.93
2023-03-25T15:25:26.031Z,8.93
2023-03-25T15:30:47.399Z,9.40
2023-03-25T15:36:23.177Z,11.10
2023-03-25T15:41:27.924Z,11.43
2023-03-25T15:47:06.989Z,9.50
2023-03-25T15:52:29.907Z,7.40
2023-03-25T15:57:47.275Z,8.97
2023-03-25T16:02:55.013Z,8.60
2023-03-25T16:07:59.915Z,8.30
2023-03-25T16:13:06.993Z,10.67
2023-03-25T16:18:11.071Z,8.53
2023-03-25T16:23:20.539Z,7.17
2023-03-25T16:28:40.903Z,11.77
2023-03-25T16:33:44.047Z,7.83
2023-03-25T16:38:46.044Z,8.00
2023-03-25T16:43:48.338Z,8.63
2023-03-25T16:48:54.291Z,7.87
2023-03-25T16:53:59.546Z,9.90
2023-03-25T16:59:15.242Z,9.23
2023-03-25T17:04:22.821Z,9.00
2023-03-25T17:09:40.138Z,8.93
2023-03-25T17:14:45.981Z,7.20
2023-03-25T17:19:52.295Z,8.90
2023-03-25T17:25:11.383Z,9.93
2023-03-25T17:30:22.214Z,9.67
2023-03-25T17:35:28.058Z,7.83
2023-03-25T17:40:29.876Z,7.73
2023-03-25T17:45:31.884Z,8.43
2023-03-25T17:50:33.782Z,9.77
2023-03-25T17:55:35.618Z,9.37
2023-03-25T18:00:38.135Z,7.37
2023-03-25T18:05:40.600Z,10.73
2023-03-25T18:10:42.957Z,8.67
2023-03-25T18:15:45.045Z,11.97
2023-03-25T18:20:47.414Z,10.53
2023-03-25T18:25:49.359Z,8.37
2023-03-25T18:30:54.179Z,11.10
2023-03-25T18:35:58.963Z,9.00
2023-03-25T18:41:01.091Z,10.33
2023-03-25T18:46:04.335Z,9.83
2023-03-25T18:51:06.686Z,11.60
2023-03-25T18:56:09.099Z,12.93
2023-03-25T19:01:15.589Z,11.70
2023-03-25T19:06:18.860Z,9.23
2023-03-25T19:11:22.178Z,9.10
2023-03-25T19:16:24.260Z,10.67
2023-03-25T19:21:26.176Z,8.60
2023-03-25T19:26:28.180Z,9.80
2023-03-25T19:31:30.550Z,12.37
2023-03-25T19:36:35.021Z,9.13
2023-03-25T19:41:42.744Z,14.00
2023-03-25T19:46:44.553Z,12.63
2023-03-25T19:51:46.395Z,9.10
2023-03-25T19:56:48.195Z,10.60
2023-03-25T20:01:49.996Z,10.30
2023-03-25T20:06:51.846Z,9.07
2023-03-25T20:11:53.677Z,10.10
2023-03-25T20:16:55.625Z,10.00
2023-03-25T20:21:57.322Z,10.60
2023-03-25T20:26:59.751Z,12.27
2023-03-25T20:32:01.712Z,12.07
2023-03-25T20:37:03.475Z,10.50
2023-03-25T20:42:05.563Z,8.97
2023-03-25T20:47:08.033Z,12.17
2023-03-25T20:52:10.089Z,9.23
2023-03-25T20:57:12.598Z,9.87
2023-03-25T21:02:16.878Z,8.83
2023-03-25T21:07:19.418Z,12.90
2023-03-25T21:12:27.144Z,14.47
2023-03-25T21:17:35.082Z,13.47
2023-03-25T21:22:43.679Z,13.93
2023-03-25T21:27:46.605Z,12.50
2023-03-25T21:32:48.450Z,16.70
2023-03-25T21:37:51.695Z,14.87
2023-03-25T21:42:53.408Z,11.97
2023-03-25T21:47:55.188Z,11.97
2023-03-25T21:52:57.063Z,10.17
2023-03-25T21:57:59.521Z,8.53
2023-03-25T22:03:01.341Z,15.60
2023-03-25T22:08:03.130Z,11.73
2023-03-25T22:13:04.815Z,11.77
2023-03-25T22:18:07.036Z,10.60
2023-03-25T22:23:12.386Z,18.17
2023-03-25T22:28:14.142Z,11.33
2023-03-25T22:33:17.011Z,12.90
2023-03-25T22:38:21.292Z,12.80
2023-03-25T22:43:24.181Z,13.17
2023-03-25T22:48:27.085Z,11.97
2023-03-25T22:53:28.868Z,17.67
2023-03-25T22:58:31.656Z,11.73
2023-03-25T23:03:33.880Z,11.53
2023-03-25T23:08:38.867Z,11.40
2023-03-25T23:13:42.835Z,11.20
2023-03-25T23:18:45.050Z,12.83
2023-03-25T23:23:53.017Z,14.47
2023-03-25T23:29:00.414Z,16.37
2023-03-25T23:34:05.861Z,13.43
2023-03-25T23:39:10.951Z,13.77
2023-03-25T23:44:13.204Z,14.83
2023-03-25T23:49:18.010Z,13.13
2023-03-25T23:54:19.797Z,12.53
2023-03-25T23:59:21.518Z,14.43
